Portada
METAR-TAF:

METAR-TAF

Aeropuertos :

Noshahr, Irán

latitud: 36-39-48N, longitud: 051-27-53E, altitud: 0 m

Observación

El informe se hizo hace 1 hora y 5 minutos, a las 22:00 UTC
Viento 2 kt del sur-sureste
Temperatura 18°C
Humedad 94%
Presión 1012 hPa
Visibilidad 10 km o más
Escasas nubes a una altura de 2500 ft

METAR: OINN 282200Z 15002KT 9999 FEW025 18/17 Q1012

Hora: 03:35 (23:05 UTC)


TAF: falta

Observaciones y pronósticos meteorológicos de más de 4000 aeropuertos (mensajes METAR y TAF).

Los puntos amarillos y rojos representan las estaciones disponibles.

Ponga el ratón en el punto deseado para ver el nombre de la estación.

Haga clic para ver las observaciones y los pronósticos meteorológicos.

Para cambiar el mapa : haga clic en los botones verdes con una cruz de color negro para hacer un zoom, en el botón verde con un guión para alejar o en las flechas verdes para mapas adyacentes.


METAR-TAF: